sensor_id;sensor_type;location;lat;lon;timestamp;P1;durP1;ratioP1;P2;durP2;ratioP2
18612;SDS011;9436;52.152;21.032;2022-11-20T00:01:16;42.67;;;26.23;;
18612;SDS011;9436;52.152;21.032;2022-11-20T00:03:45;41.27;;;26.07;;
18612;SDS011;9436;52.152;21.032;2022-11-20T00:06:14;40.03;;;26.67;;
18612;SDS011;9436;52.152;21.032;2022-11-20T00:08:43;42.67;;;26.53;;
18612;SDS011;9436;52.152;21.032;2022-11-20T00:11:11;39.27;;;26.13;;
18612;SDS011;9436;52.152;21.032;2022-11-20T00:13:39;38.87;;;26.00;;
18612;SDS011;9436;52.152;21.032;2022-11-20T00:16:07;42.97;;;26.10;;
18612;SDS011;9436;52.152;21.032;2022-11-20T00:18:36;42.00;;;26.27;;
18612;SDS011;9436;52.152;21.032;2022-11-20T00:21:03;41.63;;;26.33;;
18612;SDS011;9436;52.152;21.032;2022-11-20T00:23:33;41.90;;;27.00;;
18612;SDS011;9436;52.152;21.032;2022-11-20T00:26:03;40.00;;;25.37;;
18612;SDS011;9436;52.152;21.032;2022-11-20T00:28:31;39.20;;;25.97;;
18612;SDS011;9436;52.152;21.032;2022-11-20T00:31:02;40.43;;;25.73;;
18612;SDS011;9436;52.152;21.032;2022-11-20T00:33:29;39.33;;;25.77;;
18612;SDS011;9436;52.152;21.032;2022-11-20T00:36:00;39.23;;;25.13;;
18612;SDS011;9436;52.152;21.032;2022-11-20T00:38:29;42.23;;;25.90;;
18612;SDS011;9436;52.152;21.032;2022-11-20T00:40:58;40.03;;;26.80;;
18612;SDS011;9436;52.152;21.032;2022-11-20T00:43:26;39.73;;;25.03;;
18612;SDS011;9436;52.152;21.032;2022-11-20T00:45:57;38.13;;;24.97;;
18612;SDS011;9436;52.152;21.032;2022-11-20T00:48:24;39.60;;;24.87;;
18612;SDS011;9436;52.152;21.032;2022-11-20T00:50:52;39.67;;;24.73;;
18612;SDS011;9436;52.152;21.032;2022-11-20T00:53:20;38.83;;;25.30;;
18612;SDS011;9436;52.152;21.032;2022-11-20T00:55:54;42.80;;;26.63;;
18612;SDS011;9436;52.152;21.032;2022-11-20T00:58:22;39.13;;;25.50;;
18612;SDS011;9436;52.152;21.032;2022-11-20T01:00:50;44.10;;;26.27;;
18612;SDS011;9436;52.152;21.032;2022-11-20T01:03:17;42.27;;;25.63;;
18612;SDS011;9436;52.152;21.032;2022-11-20T01:05:44;40.10;;;25.57;;
18612;SDS011;9436;52.152;21.032;2022-11-20T01:08:11;43.20;;;25.17;;
18612;SDS011;9436;52.152;21.032;2022-11-20T01:10:38;39.30;;;24.83;;
18612;SDS011;9436;52.152;21.032;2022-11-20T01:13:05;39.00;;;24.30;;
18612;SDS011;9436;52.152;21.032;2022-11-20T01:15:51;40.10;;;24.60;;
18612;SDS011;9436;52.152;21.032;2022-11-20T01:18:19;38.67;;;24.67;;
18612;SDS011;9436;52.152;21.032;2022-11-20T01:20:46;39.93;;;25.20;;
18612;SDS011;9436;52.152;21.032;2022-11-20T01:23:13;35.80;;;24.80;;
18612;SDS011;9436;52.152;21.032;2022-11-20T01:25:40;39.07;;;25.53;;
18612;SDS011;9436;52.152;21.032;2022-11-20T01:28:07;39.83;;;25.53;;
18612;SDS011;9436;52.152;21.032;2022-11-20T01:30:34;39.93;;;24.27;;
18612;SDS011;9436;52.152;21.032;2022-11-20T01:33:02;36.77;;;24.13;;
18612;SDS011;9436;52.152;21.032;2022-11-20T01:35:29;37.20;;;24.30;;
18612;SDS011;9436;52.152;21.032;2022-11-20T01:37:56;37.70;;;24.77;;
18612;SDS011;9436;52.152;21.032;2022-11-20T01:40:23;38.00;;;25.87;;
18612;SDS011;9436;52.152;21.032;2022-11-20T01:42:52;40.00;;;25.67;;
18612;SDS011;9436;52.152;21.032;2022-11-20T01:45:56;38.50;;;24.30;;
18612;SDS011;9436;52.152;21.032;2022-11-20T01:48:32;38.90;;;25.73;;
18612;SDS011;9436;52.152;21.032;2022-11-20T01:51:02;40.57;;;26.53;;
18612;SDS011;9436;52.152;21.032;2022-11-20T01:53:33;40.50;;;26.80;;
18612;SDS011;9436;52.152;21.032;2022-11-20T01:56:03;45.53;;;26.53;;
18612;SDS011;9436;52.152;21.032;2022-11-20T01:58:35;39.60;;;26.47;;
18612;SDS011;9436;52.152;21.032;2022-11-20T02:01:07;40.23;;;25.53;;
18612;SDS011;9436;52.152;21.032;2022-11-20T02:03:35;43.23;;;26.90;;
18612;SDS011;9436;52.152;21.032;2022-11-20T02:06:07;41.20;;;26.90;;
18612;SDS011;9436;52.152;21.032;2022-11-20T02:08:38;41.23;;;27.10;;
18612;SDS011;9436;52.152;21.032;2022-11-20T02:11:05;41.90;;;27.03;;
18612;SDS011;9436;52.152;21.032;2022-11-20T02:13:33;41.97;;;26.33;;
18612;SDS011;9436;52.152;21.032;2022-11-20T02:16:09;39.80;;;26.63;;
18612;SDS011;9436;52.152;21.032;2022-11-20T02:18:40;42.50;;;25.87;;
18612;SDS011;9436;52.152;21.032;2022-11-20T02:21:11;40.70;;;26.70;;
18612;SDS011;9436;52.152;21.032;2022-11-20T02:23:54;41.90;;;26.63;;
18612;SDS011;9436;52.152;21.032;2022-11-20T02:26:26;39.47;;;25.60;;
18612;SDS011;9436;52.152;21.032;2022-11-20T02:28:55;43.00;;;27.13;;
18612;SDS011;9436;52.152;21.032;2022-11-20T02:31:24;43.90;;;27.63;;
18612;SDS011;9436;52.152;21.032;2022-11-20T02:33:54;43.13;;;27.17;;
18612;SDS011;9436;52.152;21.032;2022-11-20T02:36:23;41.07;;;26.13;;
18612;SDS011;9436;52.152;21.032;2022-11-20T02:38:54;42.67;;;27.40;;
18612;SDS011;9436;52.152;21.032;2022-11-20T02:41:21;43.23;;;27.93;;
18612;SDS011;9436;52.152;21.032;2022-11-20T02:43:56;43.27;;;27.70;;
18612;SDS011;9436;52.152;21.032;2022-11-20T02:46:23;45.53;;;28.60;;
18612;SDS011;9436;52.152;21.032;2022-11-20T02:48:50;42.80;;;27.27;;
18612;SDS011;9436;52.152;21.032;2022-11-20T02:51:17;41.73;;;26.60;;
18612;SDS011;9436;52.152;21.032;2022-11-20T02:53:44;43.53;;;27.13;;
18612;SDS011;9436;52.152;21.032;2022-11-20T02:56:12;44.50;;;27.90;;
18612;SDS011;9436;52.152;21.032;2022-11-20T02:58:39;39.10;;;27.00;;
18612;SDS011;9436;52.152;21.032;2022-11-20T03:01:06;40.97;;;26.77;;
18612;SDS011;9436;52.152;21.032;2022-11-20T03:03:33;44.70;;;27.57;;
18612;SDS011;9436;52.152;21.032;2022-11-20T03:06:00;41.83;;;27.50;;
18612;SDS011;9436;52.152;21.032;2022-11-20T03:08:28;42.03;;;27.30;;
18612;SDS011;9436;52.152;21.032;2022-11-20T03:10:55;41.47;;;27.43;;
18612;SDS011;9436;52.152;21.032;2022-11-20T03:13:24;44.77;;;28.37;;
18612;SDS011;9436;52.152;21.032;2022-11-20T03:15:51;39.27;;;27.07;;
18612;SDS011;9436;52.152;21.032;2022-11-20T03:18:18;42.53;;;27.57;;
18612;SDS011;9436;52.152;21.032;2022-11-20T03:20:45;40.47;;;27.57;;
18612;SDS011;9436;52.152;21.032;2022-11-20T03:23:12;43.03;;;28.43;;
18612;SDS011;9436;52.152;21.032;2022-11-20T03:25:39;43.93;;;28.53;;
18612;SDS011;9436;52.152;21.032;2022-11-20T03:28:06;44.03;;;27.10;;
18612;SDS011;9436;52.152;21.032;2022-11-20T03:30:35;41.80;;;27.70;;
18612;SDS011;9436;52.152;21.032;2022-11-20T03:33:02;44.53;;;27.83;;
18612;SDS011;9436;52.152;21.032;2022-11-20T03:35:29;43.00;;;27.30;;
18612;SDS011;9436;52.152;21.032;2022-11-20T03:37:56;43.77;;;28.10;;
18612;SDS011;9436;52.152;21.032;2022-11-20T03:40:24;42.67;;;27.70;;
18612;SDS011;9436;52.152;21.032;2022-11-20T03:42:51;46.67;;;28.63;;
18612;SDS011;9436;52.152;21.032;2022-11-20T03:45:18;43.07;;;27.83;;
18612;SDS011;9436;52.152;21.032;2022-11-20T03:47:47;44.93;;;27.53;;
18612;SDS011;9436;52.152;21.032;2022-11-20T03:50:14;44.80;;;27.50;;
18612;SDS011;9436;52.152;21.032;2022-11-20T03:52:41;41.77;;;27.77;;
18612;SDS011;9436;52.152;21.032;2022-11-20T03:55:09;44.80;;;27.63;;
18612;SDS011;9436;52.152;21.032;2022-11-20T03:57:36;40.87;;;27.60;;
18612;SDS011;9436;52.152;21.032;2022-11-20T04:00:03;43.20;;;27.13;;
18612;SDS011;9436;52.152;21.032;2022-11-20T04:02:31;43.33;;;28.40;;
18612;SDS011;9436;52.152;21.032;2022-11-20T04:04:59;42.77;;;28.50;;
18612;SDS011;9436;52.152;21.032;2022-11-20T04:07:26;44.57;;;27.77;;
18612;SDS011;9436;52.152;21.032;2022-11-20T04:09:53;42.97;;;27.20;;
18612;SDS011;9436;52.152;21.032;2022-11-20T04:12:20;44.90;;;28.83;;
18612;SDS011;9436;52.152;21.032;2022-11-20T04:14:47;47.93;;;27.63;;
18612;SDS011;9436;52.152;21.032;2022-11-20T04:17:14;45.13;;;28.30;;
18612;SDS011;9436;52.152;21.032;2022-11-20T04:19:41;42.77;;;26.37;;
18612;SDS011;9436;52.152;21.032;2022-11-20T04:22:09;42.53;;;27.03;;
18612;SDS011;9436;52.152;21.032;2022-11-20T04:24:37;42.20;;;27.30;;
18612;SDS011;9436;52.152;21.032;2022-11-20T04:27:04;42.77;;;27.80;;
18612;SDS011;9436;52.152;21.032;2022-11-20T04:29:31;41.47;;;26.57;;
18612;SDS011;9436;52.152;21.032;2022-11-20T04:31:58;41.13;;;26.90;;
18612;SDS011;9436;52.152;21.032;2022-11-20T04:34:25;40.50;;;25.40;;
18612;SDS011;9436;52.152;21.032;2022-11-20T04:36:52;39.67;;;26.33;;
18612;SDS011;9436;52.152;21.032;2022-11-20T04:39:20;42.43;;;26.53;;
18612;SDS011;9436;52.152;21.032;2022-11-20T04:41:47;40.47;;;26.30;;
18612;SDS011;9436;52.152;21.032;2022-11-20T04:44:34;37.17;;;25.23;;
18612;SDS011;9436;52.152;21.032;2022-11-20T04:47:01;42.13;;;26.37;;
18612;SDS011;9436;52.152;21.032;2022-11-20T04:49:29;40.00;;;26.00;;
18612;SDS011;9436;52.152;21.032;2022-11-20T04:51:56;41.20;;;26.20;;
18612;SDS011;9436;52.152;21.032;2022-11-20T04:54:25;38.40;;;24.80;;
18612;SDS011;9436;52.152;21.032;2022-11-20T04:56:51;38.90;;;25.23;;
18612;SDS011;9436;52.152;21.032;2022-11-20T04:59:18;40.67;;;26.27;;
18612;SDS011;9436;52.152;21.032;2022-11-20T05:01:46;36.70;;;24.50;;
18612;SDS011;9436;52.152;21.032;2022-11-20T05:04:13;39.10;;;24.83;;
18612;SDS011;9436;52.152;21.032;2022-11-20T05:06:39;38.40;;;25.57;;
18612;SDS011;9436;52.152;21.032;2022-11-20T05:09:06;36.97;;;23.67;;
18612;SDS011;9436;52.152;21.032;2022-11-20T05:11:35;38.37;;;25.00;;
18612;SDS011;9436;52.152;21.032;2022-11-20T05:14:02;39.70;;;25.23;;
18612;SDS011;9436;52.152;21.032;2022-11-20T05:16:29;41.53;;;25.17;;
18612;SDS011;9436;52.152;21.032;2022-11-20T05:18:56;37.60;;;25.47;;
18612;SDS011;9436;52.152;21.032;2022-11-20T05:21:23;39.43;;;24.60;;
18612;SDS011;9436;52.152;21.032;2022-11-20T05:23:50;41.27;;;25.23;;
18612;SDS011;9436;52.152;21.032;2022-11-20T05:26:17;39.30;;;25.33;;
18612;SDS011;9436;52.152;21.032;2022-11-20T05:28:47;39.93;;;24.67;;
18612;SDS011;9436;52.152;21.032;2022-11-20T05:31:15;37.47;;;25.00;;
18612;SDS011;9436;52.152;21.032;2022-11-20T05:33:44;39.30;;;25.93;;
18612;SDS011;9436;52.152;21.032;2022-11-20T05:36:12;39.57;;;25.47;;
18612;SDS011;9436;52.152;21.032;2022-11-20T05:38:40;40.37;;;25.40;;
18612;SDS011;9436;52.152;21.032;2022-11-20T05:41:08;39.87;;;25.70;;
18612;SDS011;9436;52.152;21.032;2022-11-20T05:43:37;43.23;;;26.70;;
18612;SDS011;9436;52.152;21.032;2022-11-20T05:46:07;37.50;;;25.40;;
18612;SDS011;9436;52.152;21.032;2022-11-20T05:48:35;43.37;;;26.07;;
18612;SDS011;9436;52.152;21.032;2022-11-20T05:51:03;44.00;;;27.47;;
18612;SDS011;9436;52.152;21.032;2022-11-20T05:53:32;44.00;;;27.33;;
18612;SDS011;9436;52.152;21.032;2022-11-20T05:55:59;45.27;;;27.27;;
18612;SDS011;9436;52.152;21.032;2022-11-20T05:58:28;44.93;;;27.57;;
18612;SDS011;9436;52.152;21.032;2022-11-20T06:01:02;43.43;;;28.47;;
18612;SDS011;9436;52.152;21.032;2022-11-20T06:03:32;43.90;;;26.67;;
18612;SDS011;9436;52.152;21.032;2022-11-20T06:05:59;42.03;;;26.20;;
18612;SDS011;9436;52.152;21.032;2022-11-20T06:08:26;42.30;;;26.33;;
18612;SDS011;9436;52.152;21.032;2022-11-20T06:10:53;44.77;;;28.40;;
18612;SDS011;9436;52.152;21.032;2022-11-20T06:13:21;44.80;;;26.97;;
18612;SDS011;9436;52.152;21.032;2022-11-20T06:15:49;44.50;;;27.40;;
18612;SDS011;9436;52.152;21.032;2022-11-20T06:18:16;42.43;;;27.70;;
18612;SDS011;9436;52.152;21.032;2022-11-20T06:20:44;45.53;;;28.37;;
18612;SDS011;9436;52.152;21.032;2022-11-20T06:23:11;43.20;;;27.77;;
18612;SDS011;9436;52.152;21.032;2022-11-20T06:25:39;42.17;;;28.30;;
18612;SDS011;9436;52.152;21.032;2022-11-20T06:28:06;43.83;;;28.23;;
18612;SDS011;9436;52.152;21.032;2022-11-20T06:30:33;43.33;;;27.27;;
18612;SDS011;9436;52.152;21.032;2022-11-20T06:33:01;45.00;;;28.17;;
18612;SDS011;9436;52.152;21.032;2022-11-20T06:35:28;43.10;;;27.60;;
18612;SDS011;9436;52.152;21.032;2022-11-20T06:37:56;42.57;;;26.97;;
18612;SDS011;9436;52.152;21.032;2022-11-20T06:40:23;42.83;;;27.63;;
18612;SDS011;9436;52.152;21.032;2022-11-20T06:42:52;43.30;;;27.40;;
18612;SDS011;9436;52.152;21.032;2022-11-20T06:45:20;42.17;;;27.87;;
18612;SDS011;9436;52.152;21.032;2022-11-20T06:47:47;41.53;;;27.30;;
18612;SDS011;9436;52.152;21.032;2022-11-20T06:50:14;46.10;;;27.80;;
18612;SDS011;9436;52.152;21.032;2022-11-20T06:52:41;44.53;;;27.67;;
18612;SDS011;9436;52.152;21.032;2022-11-20T06:55:10;44.93;;;28.43;;
18612;SDS011;9436;52.152;21.032;2022-11-20T06:57:37;43.10;;;27.50;;
18612;SDS011;9436;52.152;21.032;2022-11-20T07:00:04;44.37;;;26.83;;
18612;SDS011;9436;52.152;21.032;2022-11-20T07:02:32;44.90;;;28.67;;
18612;SDS011;9436;52.152;21.032;2022-11-20T07:04:59;44.27;;;28.43;;
18612;SDS011;9436;52.152;21.032;2022-11-20T07:07:26;49.87;;;29.37;;
18612;SDS011;9436;52.152;21.032;2022-11-20T07:09:53;45.63;;;28.87;;
18612;SDS011;9436;52.152;21.032;2022-11-20T07:12:21;46.77;;;29.40;;
18612;SDS011;9436;52.152;21.032;2022-11-20T07:14:48;43.17;;;28.73;;
18612;SDS011;9436;52.152;21.032;2022-11-20T07:17:15;45.73;;;29.00;;
18612;SDS011;9436;52.152;21.032;2022-11-20T07:19:42;44.97;;;28.30;;
18612;SDS011;9436;52.152;21.032;2022-11-20T07:22:09;46.03;;;27.97;;
18612;SDS011;9436;52.152;21.032;2022-11-20T07:24:36;42.60;;;27.53;;
18612;SDS011;9436;52.152;21.032;2022-11-20T07:27:04;42.50;;;27.63;;
18612;SDS011;9436;52.152;21.032;2022-11-20T07:29:32;41.90;;;27.63;;
18612;SDS011;9436;52.152;21.032;2022-11-20T07:31:59;44.17;;;27.90;;
18612;SDS011;9436;52.152;21.032;2022-11-20T07:34:26;44.27;;;27.60;;
18612;SDS011;9436;52.152;21.032;2022-11-20T07:36:53;43.67;;;27.43;;
18612;SDS011;9436;52.152;21.032;2022-11-20T07:39:20;43.73;;;27.53;;
18612;SDS011;9436;52.152;21.032;2022-11-20T07:41:47;41.37;;;27.83;;
18612;SDS011;9436;52.152;21.032;2022-11-20T07:44:14;41.80;;;27.60;;
18612;SDS011;9436;52.152;21.032;2022-11-20T07:46:42;42.57;;;27.43;;
18612;SDS011;9436;52.152;21.032;2022-11-20T07:49:09;41.57;;;27.03;;
18612;SDS011;9436;52.152;21.032;2022-11-20T07:51:37;40.23;;;27.20;;
18612;SDS011;9436;52.152;21.032;2022-11-20T07:54:04;41.83;;;27.90;;
18612;SDS011;9436;52.152;21.032;2022-11-20T07:56:31;43.40;;;27.83;;
18612;SDS011;9436;52.152;21.032;2022-11-20T07:58:58;46.40;;;28.93;;
18612;SDS011;9436;52.152;21.032;2022-11-20T08:01:25;42.40;;;27.83;;
18612;SDS011;9436;52.152;21.032;2022-11-20T08:03:54;42.07;;;28.27;;
18612;SDS011;9436;52.152;21.032;2022-11-20T08:06:21;44.90;;;28.10;;
18612;SDS011;9436;52.152;21.032;2022-11-20T08:08:49;44.43;;;29.07;;
18612;SDS011;9436;52.152;21.032;2022-11-20T08:11:16;42.70;;;27.17;;
18612;SDS011;9436;52.152;21.032;2022-11-20T08:14:01;43.47;;;27.57;;
18612;SDS011;9436;52.152;21.032;2022-11-20T08:16:41;41.17;;;27.03;;
18612;SDS011;9436;52.152;21.032;2022-11-20T08:19:11;44.43;;;28.87;;
18612;SDS011;9436;52.152;21.032;2022-11-20T08:21:39;45.20;;;28.23;;
18612;SDS011;9436;52.152;21.032;2022-11-20T08:24:07;46.40;;;29.97;;
18612;SDS011;9436;52.152;21.032;2022-11-20T08:26:34;44.93;;;29.83;;
18612;SDS011;9436;52.152;21.032;2022-11-20T08:29:03;43.63;;;28.63;;
18612;SDS011;9436;52.152;21.032;2022-11-20T08:31:31;45.40;;;29.63;;
18612;SDS011;9436;52.152;21.032;2022-11-20T08:33:58;45.67;;;29.57;;
18612;SDS011;9436;52.152;21.032;2022-11-20T08:36:27;46.87;;;30.60;;
18612;SDS011;9436;52.152;21.032;2022-11-20T08:38:55;46.80;;;28.90;;
18612;SDS011;9436;52.152;21.032;2022-11-20T08:41:22;45.60;;;29.50;;
18612;SDS011;9436;52.152;21.032;2022-11-20T08:43:53;45.27;;;29.17;;
18612;SDS011;9436;52.152;21.032;2022-11-20T08:46:22;46.77;;;30.10;;
18612;SDS011;9436;52.152;21.032;2022-11-20T08:48:50;47.07;;;29.60;;
18612;SDS011;9436;52.152;21.032;2022-11-20T08:51:18;45.20;;;29.43;;
18612;SDS011;9436;52.152;21.032;2022-11-20T08:53:47;46.20;;;30.23;;
18612;SDS011;9436;52.152;21.032;2022-11-20T08:56:14;43.07;;;29.30;;
18612;SDS011;9436;52.152;21.032;2022-11-20T08:58:42;44.47;;;30.23;;
18612;SDS011;9436;52.152;21.032;2022-11-20T09:01:09;46.53;;;30.80;;
18612;SDS011;9436;52.152;21.032;2022-11-20T09:03:36;47.43;;;30.70;;
18612;SDS011;9436;52.152;21.032;2022-11-20T09:06:04;44.90;;;30.60;;
18612;SDS011;9436;52.152;21.032;2022-11-20T09:08:32;46.83;;;29.80;;
18612;SDS011;9436;52.152;21.032;2022-11-20T09:11:02;42.33;;;29.03;;
18612;SDS011;9436;52.152;21.032;2022-11-20T09:13:30;43.40;;;29.13;;
18612;SDS011;9436;52.152;21.032;2022-11-20T09:16:00;43.23;;;30.10;;
18612;SDS011;9436;52.152;21.032;2022-11-20T09:18:28;48.63;;;31.17;;
18612;SDS011;9436;52.152;21.032;2022-11-20T09:20:57;41.73;;;29.57;;
18612;SDS011;9436;52.152;21.032;2022-11-20T09:23:24;44.20;;;29.80;;
18612;SDS011;9436;52.152;21.032;2022-11-20T09:25:51;46.03;;;29.50;;
18612;SDS011;9436;52.152;21.032;2022-11-20T09:28:21;45.23;;;29.63;;
18612;SDS011;9436;52.152;21.032;2022-11-20T09:30:48;42.73;;;28.60;;
18612;SDS011;9436;52.152;21.032;2022-11-20T09:33:15;43.47;;;28.73;;
18612;SDS011;9436;52.152;21.032;2022-11-20T09:35:43;47.97;;;29.73;;
18612;SDS011;9436;52.152;21.032;2022-11-20T09:38:10;41.70;;;29.03;;
18612;SDS011;9436;52.152;21.032;2022-11-20T09:40:39;42.37;;;28.50;;
18612;SDS011;9436;52.152;21.032;2022-11-20T09:43:12;42.93;;;27.87;;
18612;SDS011;9436;52.152;21.032;2022-11-20T09:45:56;45.50;;;29.57;;
18612;SDS011;9436;52.152;21.032;2022-11-20T09:48:42;43.60;;;28.30;;
18612;SDS011;9436;52.152;21.032;2022-11-20T09:51:30;42.70;;;29.07;;
18612;SDS011;9436;52.152;21.032;2022-11-20T09:54:08;43.27;;;29.40;;
18612;SDS011;9436;52.152;21.032;2022-11-20T09:56:42;42.43;;;29.23;;
18612;SDS011;9436;52.152;21.032;2022-11-20T09:59:14;44.27;;;29.13;;
18612;SDS011;9436;52.152;21.032;2022-11-20T10:01:54;44.23;;;28.70;;
18612;SDS011;9436;52.152;21.032;2022-11-20T10:04:21;44.80;;;30.53;;
18612;SDS011;9436;52.152;21.032;2022-11-20T10:06:50;44.77;;;30.43;;
18612;SDS011;9436;52.152;21.032;2022-11-20T10:09:23;41.77;;;28.80;;
18612;SDS011;9436;52.152;21.032;2022-11-20T10:11:58;44.23;;;30.37;;
18612;SDS011;9436;52.152;21.032;2022-11-20T10:14:38;42.43;;;29.53;;
18612;SDS011;9436;52.152;21.032;2022-11-20T10:17:17;44.73;;;30.47;;
18612;SDS011;9436;52.152;21.032;2022-11-20T10:19:56;42.23;;;29.30;;
18612;SDS011;9436;52.152;21.032;2022-11-20T10:22:40;42.50;;;28.97;;
18612;SDS011;9436;52.152;21.032;2022-11-20T10:25:17;43.00;;;29.13;;
18612;SDS011;9436;52.152;21.032;2022-11-20T10:27:52;41.30;;;27.17;;
18612;SDS011;9436;52.152;21.032;2022-11-20T10:30:37;41.40;;;28.60;;
18612;SDS011;9436;52.152;21.032;2022-11-20T10:33:11;41.17;;;28.00;;
18612;SDS011;9436;52.152;21.032;2022-11-20T10:35:42;40.20;;;27.40;;
18612;SDS011;9436;52.152;21.032;2022-11-20T10:38:14;39.37;;;27.57;;
18612;SDS011;9436;52.152;21.032;2022-11-20T10:40:48;38.13;;;26.77;;
18612;SDS011;9436;52.152;21.032;2022-11-20T10:43:19;36.93;;;25.77;;
18612;SDS011;9436;52.152;21.032;2022-11-20T10:45:50;38.13;;;26.67;;
18612;SDS011;9436;52.152;21.032;2022-11-20T10:48:25;39.03;;;27.43;;
18612;SDS011;9436;52.152;21.032;2022-11-20T10:50:55;40.33;;;27.27;;
18612;SDS011;9436;52.152;21.032;2022-11-20T10:53:40;39.90;;;26.10;;
18612;SDS011;9436;52.152;21.032;2022-11-20T10:56:18;37.93;;;26.27;;
18612;SDS011;9436;52.152;21.032;2022-11-20T11:01:50;38.73;;;26.13;;
18612;SDS011;9436;52.152;21.032;2022-11-20T11:04:33;37.93;;;25.27;;
18612;SDS011;9436;52.152;21.032;2022-11-20T11:07:06;38.47;;;25.80;;
18612;SDS011;9436;52.152;21.032;2022-11-20T11:09:38;39.83;;;26.07;;
18612;SDS011;9436;52.152;21.032;2022-11-20T11:12:09;36.77;;;24.73;;
18612;SDS011;9436;52.152;21.032;2022-11-20T11:14:43;35.93;;;25.10;;
18612;SDS011;9436;52.152;21.032;2022-11-20T11:17:21;37.53;;;25.87;;
18612;SDS011;9436;52.152;21.032;2022-11-20T11:20:04;37.50;;;26.33;;
18612;SDS011;9436;52.152;21.032;2022-11-20T11:22:33;33.83;;;24.60;;
18612;SDS011;9436;52.152;21.032;2022-11-20T11:25:08;37.33;;;26.50;;
18612;SDS011;9436;52.152;21.032;2022-11-20T11:27:49;35.23;;;25.07;;
18612;SDS011;9436;52.152;21.032;2022-11-20T11:30:18;33.83;;;25.10;;
18612;SDS011;9436;52.152;21.032;2022-11-20T11:32:46;35.40;;;25.60;;
18612;SDS011;9436;52.152;21.032;2022-11-20T11:35:22;37.67;;;25.90;;
18612;SDS011;9436;52.152;21.032;2022-11-20T11:37:51;38.20;;;26.73;;
18612;SDS011;9436;52.152;21.032;2022-11-20T11:40:20;35.60;;;25.90;;
18612;SDS011;9436;52.152;21.032;2022-11-20T11:42:54;38.83;;;27.10;;
18612;SDS011;9436;52.152;21.032;2022-11-20T11:45:23;36.33;;;26.10;;
18612;SDS011;9436;52.152;21.032;2022-11-20T11:47:50;36.23;;;25.00;;
18612;SDS011;9436;52.152;21.032;2022-11-20T11:50:22;40.10;;;26.50;;
18612;SDS011;9436;52.152;21.032;2022-11-20T11:52:53;34.97;;;23.47;;
18612;SDS011;9436;52.152;21.032;2022-11-20T11:55:29;32.83;;;23.47;;
18612;SDS011;9436;52.152;21.032;2022-11-20T11:58:04;33.10;;;24.23;;
18612;SDS011;9436;52.152;21.032;2022-11-20T12:00:49;32.97;;;24.20;;
18612;SDS011;9436;52.152;21.032;2022-11-20T12:03:24;34.40;;;24.23;;
18612;SDS011;9436;52.152;21.032;2022-11-20T12:05:57;36.00;;;24.87;;
18612;SDS011;9436;52.152;21.032;2022-11-20T12:08:28;32.07;;;24.20;;
18612;SDS011;9436;52.152;21.032;2022-11-20T12:10:59;36.50;;;24.03;;
18612;SDS011;9436;52.152;21.032;2022-11-20T12:16:19;34.90;;;24.70;;
18612;SDS011;9436;52.152;21.032;2022-11-20T12:18:47;33.00;;;23.10;;
18612;SDS011;9436;52.152;21.032;2022-11-20T12:21:23;32.93;;;24.13;;
18612;SDS011;9436;52.152;21.032;2022-11-20T12:24:06;34.43;;;24.00;;
18612;SDS011;9436;52.152;21.032;2022-11-20T12:26:47;33.40;;;23.77;;
18612;SDS011;9436;52.152;21.032;2022-11-20T12:29:28;32.07;;;23.00;;
18612;SDS011;9436;52.152;21.032;2022-11-20T12:32:15;33.30;;;23.80;;
18612;SDS011;9436;52.152;21.032;2022-11-20T12:35:14;35.20;;;23.90;;
18612;SDS011;9436;52.152;21.032;2022-11-20T12:38:08;34.17;;;23.23;;
18612;SDS011;9436;52.152;21.032;2022-11-20T12:40:57;31.07;;;22.00;;
18612;SDS011;9436;52.152;21.032;2022-11-20T12:43:34;31.87;;;22.67;;
18612;SDS011;9436;52.152;21.032;2022-11-20T12:46:26;35.50;;;23.90;;
18612;SDS011;9436;52.152;21.032;2022-11-20T12:49:02;32.63;;;23.50;;
18612;SDS011;9436;52.152;21.032;2022-11-20T12:51:50;33.23;;;23.53;;
18612;SDS011;9436;52.152;21.032;2022-11-20T12:57:29;29.43;;;21.33;;
18612;SDS011;9436;52.152;21.032;2022-11-20T13:00:09;30.17;;;22.03;;
18612;SDS011;9436;52.152;21.032;2022-11-20T13:05:43;30.50;;;22.47;;
18612;SDS011;9436;52.152;21.032;2022-11-20T13:08:20;33.53;;;23.37;;
18612;SDS011;9436;52.152;21.032;2022-11-20T13:10:51;31.63;;;22.50;;
18612;SDS011;9436;52.152;21.032;2022-11-20T13:13:28;32.20;;;21.90;;
18612;SDS011;9436;52.152;21.032;2022-11-20T13:16:01;32.23;;;22.87;;
18612;SDS011;9436;52.152;21.032;2022-11-20T13:18:33;31.20;;;21.33;;
18612;SDS011;9436;52.152;21.032;2022-11-20T13:21:12;32.40;;;22.90;;
18612;SDS011;9436;52.152;21.032;2022-11-20T13:23:44;30.53;;;22.17;;
18612;SDS011;9436;52.152;21.032;2022-11-20T13:26:17;29.43;;;21.03;;
18612;SDS011;9436;52.152;21.032;2022-11-20T13:28:46;30.33;;;21.57;;
18612;SDS011;9436;52.152;21.032;2022-11-20T13:31:35;31.00;;;21.97;;
18612;SDS011;9436;52.152;21.032;2022-11-20T13:34:05;31.37;;;22.43;;
18612;SDS011;9436;52.152;21.032;2022-11-20T13:36:33;32.20;;;21.63;;
18612;SDS011;9436;52.152;21.032;2022-11-20T13:39:01;32.40;;;22.30;;
18612;SDS011;9436;52.152;21.032;2022-11-20T13:41:31;34.70;;;24.03;;
18612;SDS011;9436;52.152;21.032;2022-11-20T13:44:10;38.70;;;24.43;;
18612;SDS011;9436;52.152;21.032;2022-11-20T13:46:42;34.83;;;24.00;;
18612;SDS011;9436;52.152;21.032;2022-11-20T13:49:16;36.70;;;25.17;;
18612;SDS011;9436;52.152;21.032;2022-11-20T13:51:45;37.33;;;26.13;;
18612;SDS011;9436;52.152;21.032;2022-11-20T13:54:19;40.23;;;27.00;;
18612;SDS011;9436;52.152;21.032;2022-11-20T13:57:01;39.67;;;26.07;;
18612;SDS011;9436;52.152;21.032;2022-11-20T13:59:42;38.93;;;27.77;;
18612;SDS011;9436;52.152;21.032;2022-11-20T14:02:19;39.97;;;28.17;;
18612;SDS011;9436;52.152;21.032;2022-11-20T14:04:49;36.67;;;26.77;;
18612;SDS011;9436;52.152;21.032;2022-11-20T14:07:18;37.83;;;27.33;;
18612;SDS011;9436;52.152;21.032;2022-11-20T14:09:50;36.43;;;27.30;;
18612;SDS011;9436;52.152;21.032;2022-11-20T14:12:21;39.43;;;25.87;;
18612;SDS011;9436;52.152;21.032;2022-11-20T14:14:50;40.33;;;27.67;;
18612;SDS011;9436;52.152;21.032;2022-11-20T14:17:19;37.13;;;26.17;;
18612;SDS011;9436;52.152;21.032;2022-11-20T14:19:47;40.33;;;27.40;;
18612;SDS011;9436;52.152;21.032;2022-11-20T14:22:17;36.47;;;26.33;;
18612;SDS011;9436;52.152;21.032;2022-11-20T14:24:46;38.57;;;26.63;;
18612;SDS011;9436;52.152;21.032;2022-11-20T14:27:14;38.30;;;26.70;;
18612;SDS011;9436;52.152;21.032;2022-11-20T14:29:44;39.43;;;26.43;;
18612;SDS011;9436;52.152;21.032;2022-11-20T14:32:14;39.90;;;27.43;;
18612;SDS011;9436;52.152;21.032;2022-11-20T14:34:43;41.23;;;27.43;;
18612;SDS011;9436;52.152;21.032;2022-11-20T14:37:16;39.17;;;27.57;;
18612;SDS011;9436;52.152;21.032;2022-11-20T14:39:48;41.83;;;27.63;;
18612;SDS011;9436;52.152;21.032;2022-11-20T14:42:17;41.00;;;27.53;;
18612;SDS011;9436;52.152;21.032;2022-11-20T14:44:47;40.00;;;28.83;;
18612;SDS011;9436;52.152;21.032;2022-11-20T14:47:17;41.37;;;28.30;;
18612;SDS011;9436;52.152;21.032;2022-11-20T14:49:45;40.83;;;27.77;;
18612;SDS011;9436;52.152;21.032;2022-11-20T14:52:14;41.67;;;27.97;;